sensor_id;sensor_type;location;lat;lon;timestamp;pressure;altitude;pressure_sealevel;temperature;humidity
56558;BME280;43358;50.356;12.456;2023-05-11T15:57:46;95060;;;11.1;89.2
56558;BME280;43358;50.356;12.456;2023-05-11T16:07:59;95208;;;15.9;79.2
56558;BME280;43358;50.356;12.456;2023-05-11T16:08:02;95211;;;15.8;79.5
56558;BME280;43358;50.356;12.456;2023-05-11T16:09:52;95214;;;15.7;80.1
56558;BME280;43358;50.356;12.456;2023-05-11T16:11:22;95213;;;15.7;79.6
56558;BME280;43358;50.356;12.456;2023-05-11T16:12:10;95212;;;15.7;79.4
56558;BME280;43358;50.356;12.456;2023-05-11T16:23:30;95220;;;15.7;78.9
56558;BME280;43358;50.356;12.456;2023-05-11T16:23:31;95219;;;15.6;79.4
56558;BME280;43358;50.356;12.456;2023-05-11T16:24:20;95217;;;15.7;78.8
56558;BME280;43358;50.356;12.456;2023-05-11T16:30:01;95220;;;15.4;79.9
56558;BME280;43358;50.356;12.456;2023-05-11T16:38:13;95220;;;15.2;80.7
56558;BME280;43358;50.356;12.456;2023-05-11T16:38:13;95219;;;15.2;80.8
56558;BME280;43358;50.356;12.456;2023-05-11T16:38:56;95219;;;15.2;80.8
56558;BME280;43358;50.356;12.456;2023-05-11T16:39:45;95225;;;15.2;81
56558;BME280;43358;50.356;12.456;2023-05-11T16:42:35;95226;;;15.2;81.2
56558;BME280;43358;50.356;12.456;2023-05-11T16:46:25;95223;;;15.2;81.6
56558;BME280;43358;50.356;12.456;2023-05-11T16:47:44;95221;;;15.2;81.3
56558;BME280;43358;50.356;12.456;2023-05-11T16:49:35;95224;;;15.1;81.3
56558;BME280;43358;50.356;12.456;2023-05-11T16:51:38;95220;;;15.2;81.2
56558;BME280;43358;50.356;12.456;2023-05-11T16:52:41;95222;;;15.1;82.1
56558;BME280;43358;50.356;12.456;2023-05-11T16:57:35;95225;;;15.1;83
56558;BME280;43358;50.356;12.456;2023-05-11T16:58:35;95227;;;15.2;81.7
56558;BME280;43358;50.356;12.456;2023-05-11T16:59:35;95226;;;15.2;81.2
56558;BME280;43358;50.356;12.456;2023-05-11T17:03:04;95226;;;15.3;81.7
56558;BME280;43358;50.356;12.456;2023-05-11T17:05:12;95231;;;15.3;81.2
56558;BME280;43358;50.356;12.456;2023-05-11T17:06:14;95230;;;15.3;81.5
56558;BME280;43358;50.356;12.456;2023-05-11T17:07:17;95227;;;15.3;82.2
56558;BME280;43358;50.356;12.456;2023-05-11T17:08:19;95228;;;15.3;81.2
56558;BME280;43358;50.356;12.456;2023-05-11T17:09:35;95231;;;15.4;81.3
56558;BME280;43358;50.356;12.456;2023-05-11T17:10:35;95233;;;15.3;80.6
56558;BME280;43358;50.356;12.456;2023-05-11T17:13:31;95232;;;15.3;81.8
56558;BME280;43358;50.356;12.456;2023-05-11T17:14:33;95232;;;15.3;81.8
56558;BME280;43358;50.356;12.456;2023-05-11T17:15:35;95232;;;15.3;81.5
56558;BME280;43358;50.356;12.456;2023-05-11T17:16:40;95236;;;15.2;82.1
56558;BME280;43358;50.356;12.456;2023-05-11T17:17:42;95236;;;15.2;82
56558;BME280;43358;50.356;12.456;2023-05-11T17:20:59;95245;;;15.1;83.2
56558;BME280;43358;50.356;12.456;2023-05-11T17:24:06;95246;;;15;83.2
56558;BME280;43358;50.356;12.456;2023-05-11T17:27:19;95242;;;15;83.1
56558;BME280;43358;50.356;12.456;2023-05-11T17:28:29;95241;;;15;83.3
56558;BME280;43358;50.356;12.456;2023-05-11T17:30:30;95239;;;15;84.6
56558;BME280;43358;50.356;12.456;2023-05-11T17:34:35;95240;;;15.1;81.9
56558;BME280;43358;50.356;12.456;2023-05-11T17:35:35;95241;;;15.1;82.7
56558;BME280;43358;50.356;12.456;2023-05-11T17:37:37;95239;;;15.2;82.2
56558;BME280;43358;50.356;12.456;2023-05-11T17:38:39;95240;;;15.3;81.1
56558;BME280;43358;50.356;12.456;2023-05-11T17:39:42;95243;;;15.4;81.5
56558;BME280;43358;50.356;12.456;2023-05-11T17:41:35;95242;;;15.5;79.4
56558;BME280;43358;50.356;12.456;2023-05-11T17:42:35;95245;;;15.5;79.7
56558;BME280;43358;50.356;12.456;2023-05-11T17:43:35;95245;;;15.5;80.8
56558;BME280;43358;50.356;12.456;2023-05-11T17:44:35;95246;;;15.5;80.8
56558;BME280;43358;50.356;12.456;2023-05-11T17:45:35;95244;;;15.5;81.6
56558;BME280;43358;50.356;12.456;2023-05-11T17:47:35;95243;;;15.4;81.3
56558;BME280;43358;50.356;12.456;2023-05-11T17:48:35;95250;;;15.4;80.9
56558;BME280;43358;50.356;12.456;2023-05-11T17:49:35;95250;;;15.3;81.1
56558;BME280;43358;50.356;12.456;2023-05-11T17:50:35;95251;;;15.3;80.8
56558;BME280;43358;50.356;12.456;2023-05-11T17:52:16;95255;;;15.2;81
56558;BME280;43358;50.356;12.456;2023-05-11T17:55:32;95258;;;15.1;82.4
56558;BME280;43358;50.356;12.456;2023-05-11T17:58:30;95258;;;15.1;82.4
56558;BME280;43358;50.356;12.456;2023-05-11T17:59:32;95259;;;15;83.5
56558;BME280;43358;50.356;12.456;2023-05-11T18:00:34;95263;;;15;83.7
56558;BME280;43358;50.356;12.456;2023-05-11T18:01:36;95260;;;15;84
56558;BME280;43358;50.356;12.456;2023-05-11T18:02:44;95261;;;15;83.7
56558;BME280;43358;50.356;12.456;2023-05-11T18:04:47;95262;;;14.9;84.3
56558;BME280;43358;50.356;12.456;2023-05-11T18:07:16;95267;;;14.8;84.9
56558;BME280;43358;50.356;12.456;2023-05-11T18:07:55;95266;;;14.8;84.9
56558;BME280;43358;50.356;12.456;2023-05-11T18:08:58;95264;;;14.7;84.8
56558;BME280;43358;50.356;12.456;2023-05-11T18:10:00;95270;;;14.7;84.7
56558;BME280;43358;50.356;12.456;2023-05-11T18:12:35;95269;;;14.6;83.8
56558;BME280;43358;50.356;12.456;2023-05-11T18:16:35;95270;;;14.4;85
56558;BME280;43358;50.356;12.456;2023-05-11T18:17:35;95272;;;14.4;85.1
56558;BME280;43358;50.356;12.456;2023-05-11T18:18:35;95269;;;14.4;84.7
56558;BME280;43358;50.356;12.456;2023-05-11T18:20:50;95272;;;14.3;84.3
56558;BME280;43358;50.356;12.456;2023-05-11T18:21:35;95272;;;14.3;83.6
56558;BME280;43358;50.356;12.456;2023-05-11T18:22:35;95277;;;14.3;83.1
56558;BME280;43358;50.356;12.456;2023-05-11T18:24:35;95277;;;14.3;83.8
56558;BME280;43358;50.356;12.456;2023-05-11T18:26:35;95272;;;14.2;83.4
56558;BME280;43358;50.356;12.456;2023-05-11T18:29:35;95276;;;14.1;83.4
56558;BME280;43358;50.356;12.456;2023-05-11T18:31:35;95277;;;14;83.2
56558;BME280;43358;50.356;12.456;2023-05-11T18:34:42;95284;;;14;85.4
56558;BME280;43358;50.356;12.456;2023-05-11T18:35:48;95283;;;13.9;84.3
56558;BME280;43358;50.356;12.456;2023-05-11T18:36:52;95285;;;13.9;83.9
56558;BME280;43358;50.356;12.456;2023-05-11T18:44:07;95290;;;13.7;84.3
56558;BME280;43358;50.356;12.456;2023-05-11T18:47:15;95296;;;13.6;84.4
56558;BME280;43358;50.356;12.456;2023-05-11T18:48:17;95294;;;13.6;85.2
56558;BME280;43358;50.356;12.456;2023-05-11T18:50:23;95298;;;13.5;85.3
56558;BME280;43358;50.356;12.456;2023-05-11T18:52:27;95299;;;13.5;85.2
56558;BME280;43358;50.356;12.456;2023-05-11T18:53:29;95300;;;13.5;85.4
56558;BME280;43358;50.356;12.456;2023-05-11T18:54:31;95300;;;13.4;85.5
56558;BME280;43358;50.356;12.456;2023-05-11T18:55:34;95304;;;13.4;85.6
56558;BME280;43358;50.356;12.456;2023-05-11T18:56:36;95305;;;13.3;85.2
56558;BME280;43358;50.356;12.456;2023-05-11T18:57:38;95304;;;13.3;85.6
56558;BME280;43358;50.356;12.456;2023-05-11T18:59:42;95310;;;13.3;86.5
56558;BME280;43358;50.356;12.456;2023-05-11T19:00:44;95309;;;13.3;86.8
56558;BME280;43358;50.356;12.456;2023-05-11T19:01:46;95311;;;13.2;86.8
56558;BME280;43358;50.356;12.456;2023-05-11T19:02:48;95311;;;13.2;86.8
56558;BME280;43358;50.356;12.456;2023-05-11T19:03:50;95311;;;13.2;86.5
56558;BME280;43358;50.356;12.456;2023-05-11T19:04:52;95314;;;13.1;86.7
56558;BME280;43358;50.356;12.456;2023-05-11T19:05:54;95307;;;13.2;86.4
56558;BME280;43358;50.356;12.456;2023-05-11T19:06:56;95313;;;13.1;86.7
56558;BME280;43358;50.356;12.456;2023-05-11T19:07:58;95318;;;13.1;86.5
56558;BME280;43358;50.356;12.456;2023-05-11T19:09:00;95320;;;13.1;87
56558;BME280;43358;50.356;12.456;2023-05-11T19:10:35;95319;;;13;86.8
56558;BME280;43358;50.356;12.456;2023-05-11T19:11:47;95321;;;13;86.9
56558;BME280;43358;50.356;12.456;2023-05-11T19:12:35;95325;;;13;87
56558;BME280;43358;50.356;12.456;2023-05-11T19:13:35;95321;;;13;87.2
56558;BME280;43358;50.356;12.456;2023-05-11T19:14:35;95325;;;12.9;87.1
56558;BME280;43358;50.356;12.456;2023-05-11T19:15:36;95326;;;12.9;87
56558;BME280;43358;50.356;12.456;2023-05-11T19:16:35;95326;;;12.9;86.9
56558;BME280;43358;50.356;12.456;2023-05-11T19:18:25;95334;;;12.9;87.4
56558;BME280;43358;50.356;12.456;2023-05-11T19:19:26;95334;;;12.9;87.1
56558;BME280;43358;50.356;12.456;2023-05-11T19:20:57;95322;;;12.9;86.8
56558;BME280;43358;50.356;12.456;2023-05-11T19:21:44;95336;;;12.8;87.2
56558;BME280;43358;50.356;12.456;2023-05-11T19:22:35;95336;;;12.8;87.5
56558;BME280;43358;50.356;12.456;2023-05-11T19:23:35;95338;;;12.8;87.2
56558;BME280;43358;50.356;12.456;2023-05-11T19:24:50;95339;;;12.8;87.4
56558;BME280;43358;50.356;12.456;2023-05-11T19:27:44;95344;;;12.7;87.5
56558;BME280;43358;50.356;12.456;2023-05-11T19:28:46;95345;;;12.7;87.6
56558;BME280;43358;50.356;12.456;2023-05-11T19:29:48;95344;;;12.7;87.6
56558;BME280;43358;50.356;12.456;2023-05-11T19:30:57;95342;;;12.7;87.5
56558;BME280;43358;50.356;12.456;2023-05-11T19:31:54;95344;;;12.6;87.8
56558;BME280;43358;50.356;12.456;2023-05-11T19:32:56;95346;;;12.6;87.9
56558;BME280;43358;50.356;12.456;2023-05-11T19:33:58;95346;;;12.6;87.9
56558;BME280;43358;50.356;12.456;2023-05-11T19:35:01;95347;;;12.6;88
56558;BME280;43358;50.356;12.456;2023-05-11T19:36:03;95348;;;12.6;87.9
56558;BME280;43358;50.356;12.456;2023-05-11T19:37:05;95347;;;12.6;87.7
56558;BME280;43358;50.356;12.456;2023-05-11T19:38:07;95348;;;12.6;87.8
56558;BME280;43358;50.356;12.456;2023-05-11T19:39:09;95348;;;12.6;87.8
56558;BME280;43358;50.356;12.456;2023-05-11T19:40:11;95348;;;12.6;87.5
56558;BME280;43358;50.356;12.456;2023-05-11T19:41:13;95352;;;12.5;87.8
56558;BME280;43358;50.356;12.456;2023-05-11T19:42:15;95352;;;12.5;87.4
56558;BME280;43358;50.356;12.456;2023-05-11T19:43:17;95353;;;12.5;87.7
56558;BME280;43358;50.356;12.456;2023-05-11T19:44:32;95354;;;12.5;87.2
56558;BME280;43358;50.356;12.456;2023-05-11T19:45:21;95355;;;12.5;87.3
56558;BME280;43358;50.356;12.456;2023-05-11T19:47:26;95354;;;12.4;87.9
56558;BME280;43358;50.356;12.456;2023-05-11T19:48:27;95357;;;12.4;87.9
56558;BME280;43358;50.356;12.456;2023-05-11T19:49:38;95355;;;12.4;88.2
56558;BME280;43358;50.356;12.456;2023-05-11T19:50:40;95357;;;12.3;88.2
56558;BME280;43358;50.356;12.456;2023-05-11T19:53:35;95358;;;12.3;88.5
56558;BME280;43358;50.356;12.456;2023-05-11T19:54:35;95357;;;12.3;88.6
56558;BME280;43358;50.356;12.456;2023-05-11T19:59:35;95365;;;12.2;89
56558;BME280;43358;50.356;12.456;2023-05-11T20:00:50;95364;;;12.2;89
56558;BME280;43358;50.356;12.456;2023-05-11T20:03:41;95371;;;12.2;88.2
56558;BME280;43358;50.356;12.456;2023-05-11T20:04:44;95371;;;12.2;87.5
56558;BME280;43358;50.356;12.456;2023-05-11T20:05:46;95372;;;12.2;87.8
56558;BME280;43358;50.356;12.456;2023-05-11T20:06:48;95372;;;12.2;88.8
56558;BME280;43358;50.356;12.456;2023-05-11T20:07:50;95373;;;12.2;88.9
56558;BME280;43358;50.356;12.456;2023-05-11T20:08:52;95375;;;12.2;89.1
56558;BME280;43358;50.356;12.456;2023-05-11T20:09:55;95376;;;12.2;89.3
56558;BME280;43358;50.356;12.456;2023-05-11T20:10:57;95378;;;12.1;89.2
56558;BME280;43358;50.356;12.456;2023-05-11T20:11:59;95378;;;12.1;89.5
56558;BME280;43358;50.356;12.456;2023-05-11T20:13:01;95381;;;12.1;89.6
56558;BME280;43358;50.356;12.456;2023-05-11T20:14:03;95382;;;12.1;89.6
56558;BME280;43358;50.356;12.456;2023-05-11T20:15:06;95388;;;12.1;89.5
56558;BME280;43358;50.356;12.456;2023-05-11T20:16:07;95388;;;12.1;89.3
56558;BME280;43358;50.356;12.456;2023-05-11T20:17:09;95389;;;12;89.3
56558;BME280;43358;50.356;12.456;2023-05-11T20:18:35;95391;;;12;89.3
56558;BME280;43358;50.356;12.456;2023-05-11T20:19:36;95390;;;12;89.3
56558;BME280;43358;50.356;12.456;2023-05-11T20:20:35;95390;;;12;89.4
56558;BME280;43358;50.356;12.456;2023-05-11T20:21:35;95388;;;12;88.8
56558;BME280;43358;50.356;12.456;2023-05-11T20:22:36;95393;;;12;88.9
56558;BME280;43358;50.356;12.456;2023-05-11T20:23:35;95395;;;12;89.2
56558;BME280;43358;50.356;12.456;2023-05-11T20:24:35;95393;;;12;89.1
56558;BME280;43358;50.356;12.456;2023-05-11T20:26:28;95394;;;12;89.2
56558;BME280;43358;50.356;12.456;2023-05-11T20:27:30;95394;;;12;89.2
56558;BME280;43358;50.356;12.456;2023-05-11T20:28:32;95393;;;12;89.3
56558;BME280;43358;50.356;12.456;2023-05-11T20:29:36;95397;;;12;89.3
56558;BME280;43358;50.356;12.456;2023-05-11T20:30:38;95396;;;12;89.3
56558;BME280;43358;50.356;12.456;2023-05-11T20:31:40;95397;;;12;89.4
56558;BME280;43358;50.356;12.456;2023-05-11T20:32:42;95395;;;12;89.2
56558;BME280;43358;50.356;12.456;2023-05-11T20:33:44;95396;;;12;89.1
56558;BME280;43358;50.356;12.456;2023-05-11T20:34:46;95398;;;12;89.3
56558;BME280;43358;50.356;12.456;2023-05-11T20:35:48;95399;;;12;89.3
56558;BME280;43358;50.356;12.456;2023-05-11T20:36:51;95396;;;12;89.2
56558;BME280;43358;50.356;12.456;2023-05-11T20:37:53;95399;;;12;89.4
56558;BME280;43358;50.356;12.456;2023-05-11T20:38:55;95395;;;12;89.2
56558;BME280;43358;50.356;12.456;2023-05-11T20:41:14;95397;;;12;89
56558;BME280;43358;50.356;12.456;2023-05-11T20:42:02;95401;;;12;89.5
56558;BME280;43358;50.356;12.456;2023-05-11T20:46:35;95400;;;11.9;89.1
56558;BME280;43358;50.356;12.456;2023-05-11T20:47:35;95402;;;11.9;89.1
56558;BME280;43358;50.356;12.456;2023-05-11T20:48:36;95402;;;11.9;89
56558;BME280;43358;50.356;12.456;2023-05-11T20:49:38;95404;;;11.9;89.4
56558;BME280;43358;50.356;12.456;2023-05-11T20:50:40;95402;;;11.9;89.7
56558;BME280;43358;50.356;12.456;2023-05-11T20:51:42;95402;;;11.8;90.3
56558;BME280;43358;50.356;12.456;2023-05-11T20:52:44;95402;;;11.8;90.4
56558;BME280;43358;50.356;12.456;2023-05-11T20:53:46;95401;;;11.8;90.5
56558;BME280;43358;50.356;12.456;2023-05-11T20:57:55;95398;;;11.8;90.4
56558;BME280;43358;50.356;12.456;2023-05-11T20:59:59;95391;;;11.8;90.8
56558;BME280;43358;50.356;12.456;2023-05-11T21:02:03;95400;;;11.8;91
56558;BME280;43358;50.356;12.456;2023-05-11T21:07:25;95396;;;11.7;91.5
56558;BME280;43358;50.356;12.456;2023-05-11T21:08:27;95396;;;11.7;91.1
56558;BME280;43358;50.356;12.456;2023-05-11T21:09:29;95400;;;11.7;90.9
56558;BME280;43358;50.356;12.456;2023-05-11T21:10:31;95396;;;11.7;91
56558;BME280;43358;50.356;12.456;2023-05-11T21:11:33;95400;;;11.7;91.2
56558;BME280;43358;50.356;12.456;2023-05-11T21:12:35;95400;;;11.7;91.2
56558;BME280;43358;50.356;12.456;2023-05-11T21:13:37;95397;;;11.7;91.1
56558;BME280;43358;50.356;12.456;2023-05-11T21:14:39;95399;;;11.6;91.1
56558;BME280;43358;50.356;12.456;2023-05-11T21:15:42;95399;;;11.6;90.8
56558;BME280;43358;50.356;12.456;2023-05-11T21:16:44;95402;;;11.6;90.6
56558;BME280;43358;50.356;12.456;2023-05-11T21:20:12;95405;;;11.6;90.9
56558;BME280;43358;50.356;12.456;2023-05-11T21:21:00;95403;;;11.6;90.9
56558;BME280;43358;50.356;12.456;2023-05-11T21:22:02;95404;;;11.6;91.1
56558;BME280;43358;50.356;12.456;2023-05-11T21:23:17;95401;;;11.6;90.9
56558;BME280;43358;50.356;12.456;2023-05-11T21:42:33;95399;;;11.5;90.9
56558;BME280;43358;50.356;12.456;2023-05-11T21:42:33;95403;;;11.5;90.7
56558;BME280;43358;50.356;12.456;2023-05-11T21:43:15;95407;;;11.3;90.9
56558;BME280;43358;50.356;12.456;2023-05-11T21:44:15;95407;;;11.2;91.2
56558;BME280;43358;50.356;12.456;2023-05-11T21:45:15;95408;;;11.2;91.6
56558;BME280;43358;50.356;12.456;2023-05-11T21:46:16;95407;;;11.1;91.7
56558;BME280;43358;50.356;12.456;2023-05-11T21:47:18;95407;;;11.1;91.8
56558;BME280;43358;50.356;12.456;2023-05-11T21:48:20;95405;;;11.1;91.8
56558;BME280;43358;50.356;12.456;2023-05-11T21:49:22;95410;;;11;91.9
56558;BME280;43358;50.356;12.456;2023-05-11T21:50:24;95407;;;11;91.8
56558;BME280;43358;50.356;12.456;2023-05-11T21:51:26;95410;;;11;91.8
56558;BME280;43358;50.356;12.456;2023-05-11T21:52:28;95413;;;11;91.9
56558;BME280;43358;50.356;12.456;2023-05-11T21:53:30;95412;;;11;91.9
56558;BME280;43358;50.356;12.456;2023-05-11T21:54:34;95414;;;11;91.8
56558;BME280;43358;50.356;12.456;2023-05-11T21:55:36;95413;;;11;91.8
56558;BME280;43358;50.356;12.456;2023-05-11T21:56:39;95410;;;11;91.9
56558;BME280;43358;50.356;12.456;2023-05-11T21:57:41;95410;;;10.9;92
56558;BME280;43358;50.356;12.456;2023-05-11T21:58:43;95413;;;10.9;91.8
56558;BME280;43358;50.356;12.456;2023-05-11T21:59:45;95408;;;10.9;91.9
56558;BME280;43358;50.356;12.456;2023-05-11T22:00:47;95411;;;10.9;92.2
56558;BME280;43358;50.356;12.456;2023-05-11T22:01:50;95412;;;10.9;92.4
56558;BME280;43358;50.356;12.456;2023-05-11T22:02:52;95410;;;10.8;92.4
56558;BME280;43358;50.356;12.456;2023-05-11T22:03:54;95411;;;10.8;92.4
56558;BME280;43358;50.356;12.456;2023-05-11T22:04:56;95412;;;10.8;92.4
56558;BME280;43358;50.356;12.456;2023-05-11T22:05:58;95410;;;10.8;92.3
56558;BME280;43358;50.356;12.456;2023-05-11T22:07:00;95411;;;10.8;92.2
56558;BME280;43358;50.356;12.456;2023-05-11T22:08:02;95410;;;10.8;92.3
56558;BME280;43358;50.356;12.456;2023-05-11T22:09:04;95406;;;10.8;92.2
56558;BME280;43358;50.356;12.456;2023-05-11T22:10:07;95407;;;10.8;92.3
56558;BME280;43358;50.356;12.456;2023-05-11T22:11:09;95406;;;10.8;92.3
56558;BME280;43358;50.356;12.456;2023-05-11T22:12:11;95409;;;10.7;92.2
56558;BME280;43358;50.356;12.456;2023-05-11T22:13:13;95406;;;10.7;92.2
56558;BME280;43358;50.356;12.456;2023-05-11T22:15:17;95412;;;10.7;92
56558;BME280;43358;50.356;12.456;2023-05-11T22:16:19;95414;;;10.7;92.3
56558;BME280;43358;50.356;12.456;2023-05-11T22:17:21;95414;;;10.6;92.6
56558;BME280;43358;50.356;12.456;2023-05-11T22:18:23;95418;;;10.6;92.6
56558;BME280;43358;50.356;12.456;2023-05-11T22:19:25;95421;;;10.5;92.7
56558;BME280;43358;50.356;12.456;2023-05-11T22:20:27;95423;;;10.5;92.8
56558;BME280;43358;50.356;12.456;2023-05-11T22:21:29;95422;;;10.5;93
56558;BME280;43358;50.356;12.456;2023-05-11T22:22:31;95421;;;10.4;93
56558;BME280;43358;50.356;12.456;2023-05-11T22:23:38;95429;;;10.4;93
56558;BME280;43358;50.356;12.456;2023-05-11T22:24:37;95428;;;10.3;92.9
56558;BME280;43358;50.356;12.456;2023-05-11T22:25:39;95430;;;10.3;93
56558;BME280;43358;50.356;12.456;2023-05-11T22:26:41;95433;;;10.3;92.9
56558;BME280;43358;50.356;12.456;2023-05-11T22:27:43;95428;;;10.3;93
56558;BME280;43358;50.356;12.456;2023-05-11T22:28:46;95428;;;10.3;93
56558;BME280;43358;50.356;12.456;2023-05-11T22:29:48;95427;;;10.3;93
56558;BME280;43358;50.356;12.456;2023-05-11T22:30:50;95428;;;10.3;92.6
56558;BME280;43358;50.356;12.456;2023-05-11T22:31:52;95430;;;10.3;92.2
56558;BME280;43358;50.356;12.456;2023-05-11T22:32:54;95433;;;10.2;92.4
56558;BME280;43358;50.356;12.456;2023-05-11T22:33:56;95433;;;10.2;92.5
56558;BME280;43358;50.356;12.456;2023-05-11T22:34:58;95434;;;10.2;92.5
56558;BME280;43358;50.356;12.456;2023-05-11T22:36:00;95432;;;10.2;92.4
56558;BME280;43358;50.356;12.456;2023-05-11T22:37:02;95431;;;10.1;92.6
56558;BME280;43358;50.356;12.456;2023-05-11T22:39:06;95430;;;10.1;93.2
56558;BME280;43358;50.356;12.456;2023-05-11T22:40:08;95429;;;10.1;93.3
56558;BME280;43358;50.356;12.456;2023-05-11T22:41:10;95429;;;10.1;93.3
56558;BME280;43358;50.356;12.456;2023-05-11T22:42:12;95427;;;10.1;93.3
56558;BME280;43358;50.356;12.456;2023-05-11T22:43:14;95427;;;10.1;93.2
56558;BME280;43358;50.356;12.456;2023-05-11T22:44:16;95428;;;10.1;93.6
56558;BME280;43358;50.356;12.456;2023-05-11T22:45:18;95431;;;10.1;93.7
56558;BME280;43358;50.356;12.456;2023-05-11T22:46:20;95430;;;10.1;93.6
56558;BME280;43358;50.356;12.456;2023-05-11T22:48:24;95429;;;10;93.6
56558;BME280;43358;50.356;12.456;2023-05-11T22:49:26;95433;;;10;93.9
56558;BME280;43358;50.356;12.456;2023-05-11T22:50:28;95431;;;10;93.7
56558;BME280;43358;50.356;12.456;2023-05-11T22:51:30;95429;;;10;93.9
56558;BME280;43358;50.356;12.456;2023-05-11T22:52:33;95429;;;9.9;94.2
56558;BME280;43358;50.356;12.456;2023-05-11T22:53:37;95428;;;9.9;94
56558;BME280;43358;50.356;12.456;2023-05-11T22:54:39;95427;;;9.9;94
56558;BME280;43358;50.356;12.456;2023-05-11T22:55:41;95425;;;9.9;93.6
56558;BME280;43358;50.356;12.456;2023-05-11T22:56:43;95424;;;9.9;93.7
56558;BME280;43358;50.356;12.456;2023-05-11T22:57:45;95425;;;9.9;93.8
56558;BME280;43358;50.356;12.456;2023-05-11T22:58:47;95428;;;9.9;93.8
56558;BME280;43358;50.356;12.456;2023-05-11T22:59:49;95433;;;9.9;94.1
56558;BME280;43358;50.356;12.456;2023-05-11T23:01:53;95434;;;9.8;94.8
56558;BME280;43358;50.356;12.456;2023-05-11T23:02:56;95434;;;9.8;94.8
56558;BME280;43358;50.356;12.456;2023-05-11T23:03:58;95432;;;9.8;94.9
56558;BME280;43358;50.356;12.456;2023-05-11T23:05:14;95427;;;9.8;94.9
56558;BME280;43358;50.356;12.456;2023-05-11T23:06:02;95427;;;9.8;94.9
56558;BME280;43358;50.356;12.456;2023-05-11T23:07:04;95424;;;9.8;94.9
56558;BME280;43358;50.356;12.456;2023-05-11T23:08:06;95423;;;9.9;94.5
56558;BME280;43358;50.356;12.456;2023-05-11T23:10:10;95420;;;9.9;94.1
56558;BME280;43358;50.356;12.456;2023-05-11T23:11:15;95422;;;9.8;94.8
56558;BME280;43358;50.356;12.456;2023-05-11T23:12:15;95421;;;9.8;94.9
56558;BME280;43358;50.356;12.456;2023-05-11T23:13:16;95423;;;9.8;95
56558;BME280;43358;50.356;12.456;2023-05-11T23:14:19;95424;;;9.8;95.1
56558;BME280;43358;50.356;12.456;2023-05-11T23:15:21;95427;;;9.8;95.2
56558;BME280;43358;50.356;12.456;2023-05-11T23:16:23;95429;;;9.8;95
56558;BME280;43358;50.356;12.456;2023-05-11T23:17:25;95424;;;9.8;95
56558;BME280;43358;50.356;12.456;2023-05-11T23:18:31;95428;;;9.8;95.1
56558;BME280;43358;50.356;12.456;2023-05-11T23:19:29;95430;;;9.8;95.2
56558;BME280;43358;50.356;12.456;2023-05-11T23:20:31;95429;;;9.8;95.1
56558;BME280;43358;50.356;12.456;2023-05-11T23:21:33;95429;;;9.8;95.1
56558;BME280;43358;50.356;12.456;2023-05-11T23:22:37;95430;;;9.9;94.9
56558;BME280;43358;50.356;12.456;2023-05-11T23:23:39;95426;;;9.9;94.8
56558;BME280;43358;50.356;12.456;2023-05-11T23:24:41;95422;;;9.9;94.5
56558;BME280;43358;50.356;12.456;2023-05-11T23:25:43;95421;;;9.9;94.5
56558;BME280;43358;50.356;12.456;2023-05-11T23:33:50;95419;;;9.9;94.7
56558;BME280;43358;50.356;12.456;2023-05-11T23:45:15;95410;;;9.7;95.2
56558;BME280;43358;50.356;12.456;2023-05-11T23:46:17;95413;;;9.6;95.3
56558;BME280;43358;50.356;12.456;2023-05-11T23:47:19;95414;;;9.6;95.6
56558;BME280;43358;50.356;12.456;2023-05-11T23:48:22;95412;;;9.7;95.6
56558;BME280;43358;50.356;12.456;2023-05-11T23:52:15;95408;;;9.6;95
56558;BME280;43358;50.356;12.456;2023-05-11T23:53:15;95410;;;9.6;94.9
56558;BME280;43358;50.356;12.456;2023-05-11T23:54:15;95409;;;9.6;95
56558;BME280;43358;50.356;12.456;2023-05-11T23:55:15;95412;;;9.6;95.1
56558;BME280;43358;50.356;12.456;2023-05-11T23:56:15;95410;;;9.6;95.1
56558;BME280;43358;50.356;12.456;2023-05-11T23:57:15;95408;;;9.6;95.1
56558;BME280;43358;50.356;12.456;2023-05-11T23:58:15;95411;;;9.6;95.2
56558;BME280;43358;50.356;12.456;2023-05-11T23:59:15;95411;;;9.6;95.2
